Time;durP1;ratioP1;P1;durP2;ratioP2;P2;SDS_P1;SDS_P2;PMS_P1;PMS_P2;Temp;Humidity;BMP_temperature;BMP_pressure;BME280_temperature;BME280_humidity;BME280_pressure;Samples;Min_cycle;Max_cycle;Signal;HPM_P1;HPM_P2
2023/07/23 00:02:14;;;;;;;0.20;0.20;;;15.10;99.90;;;;;;5102180;28;20042;-85
2023/07/23 00:04:39;;;;;;;0.20;0.20;;;15.00;99.90;;;;;;5091680;28;20044;-85
2023/07/23 00:07:05;;;;;;;0.10;0.10;;;15.00;99.90;;;;;;5074205;28;20064;-87
2023/07/23 00:09:31;;;;;;;0.10;0.10;;;15.00;99.90;;;;;;5093029;28;20040;-89
2023/07/23 00:11:57;;;;;;;0.20;0.20;;;14.90;99.90;;;;;;5110712;28;20141;-89
2023/07/23 00:14:22;;;;;;;0.20;0.20;;;14.90;99.90;;;;;;5091281;28;20131;-87
2023/07/23 00:16:48;;;;;;;0.20;0.20;;;14.90;99.90;;;;;;5076469;28;20056;-87
2023/07/23 00:19:19;;;;;;;0.10;0.10;;;14.90;99.90;;;;;;5074325;28;20037;-86
2023/07/23 00:21:46;;;;;;;0.13;0.13;;;14.90;99.90;;;;;;5075298;28;20612;-88
2023/07/23 00:24:12;;;;;;;0.20;0.20;;;14.90;99.90;;;;;;5073952;28;20044;-89
2023/07/23 00:26:37;;;;;;;0.20;0.20;;;14.80;99.90;;;;;;5087144;28;20040;-90
2023/07/23 00:29:03;;;;;;;0.20;0.20;;;14.80;99.90;;;;;;5107755;27;20484;-89
2023/07/23 00:31:29;;;;;;;0.20;0.20;;;14.80;99.90;;;;;;5091637;28;20044;-87
2023/07/23 00:33:55;;;;;;;0.10;0.10;;;14.90;99.90;;;;;;5109200;27;20203;-87
2023/07/23 00:36:20;;;;;;;0.10;0.10;;;14.80;99.90;;;;;;5085853;28;20123;-87
2023/07/23 00:38:46;;;;;;;0.20;0.20;;;14.80;99.90;;;;;;5091646;28;20134;-90
2023/07/23 00:41:12;;;;;;;0.10;0.10;;;14.80;99.90;;;;;;5088910;28;20051;-87
2023/07/23 00:43:37;;;;;;;0.20;0.20;;;14.80;99.90;;;;;;5090203;28;20028;-91
2023/07/23 00:46:03;;;;;;;0.20;0.20;;;14.70;99.90;;;;;;5088603;28;20510;-88
2023/07/23 00:48:29;;;;;;;0.20;0.20;;;14.70;99.90;;;;;;5092033;28;20036;-86
2023/07/23 00:50:55;;;;;;;0.20;0.20;;;14.70;99.90;;;;;;5091137;28;20044;-88
2023/07/23 00:53:21;;;;;;;0.20;0.20;;;14.70;99.90;;;;;;5090574;28;20036;-87
2023/07/23 00:55:48;;;;;;;0.17;0.17;;;14.70;99.90;;;;;;5085951;28;20117;-88
2023/07/23 00:58:14;;;;;;;0.20;0.20;;;14.70;99.90;;;;;;5114727;27;20056;-84
2023/07/23 01:00:40;;;;;;;0.10;0.10;;;14.70;99.90;;;;;;5092626;28;20036;-88
2023/07/23 01:03:06;;;;;;;0.20;0.20;;;14.60;99.90;;;;;;5091662;28;20057;-91
2023/07/23 01:05:33;;;;;;;0.10;0.10;;;14.80;99.90;;;;;;5092124;28;20094;-89
2023/07/23 01:07:59;;;;;;;0.10;0.10;;;14.80;99.90;;;;;;5091985;28;20075;-87
2023/07/23 01:10:26;;;;;;;0.20;0.20;;;14.80;99.90;;;;;;5093271;28;20279;-89
2023/07/23 01:12:51;;;;;;;0.20;0.20;;;14.60;99.90;;;;;;5083291;28;20036;-91
2023/07/23 01:15:18;;;;;;;0.20;0.20;;;14.70;99.90;;;;;;5101641;28;20058;-85
2023/07/23 01:17:44;;;;;;;0.20;0.20;;;14.70;99.90;;;;;;5124884;27;20386;-88
2023/07/23 01:20:10;;;;;;;0.20;0.20;;;14.60;99.90;;;;;;5090880;28;20071;-90
2023/07/23 01:22:36;;;;;;;0.10;0.10;;;14.70;99.90;;;;;;5092364;28;20068;-90
2023/07/23 01:25:04;;;;;;;0.20;0.20;;;14.70;99.90;;;;;;5098126;28;20044;-91
2023/07/23 01:27:30;;;;;;;0.20;0.20;;;14.60;99.90;;;;;;5124218;27;20048;-89
2023/07/23 01:29:55;;;;;;;0.20;0.20;;;14.70;99.90;;;;;;5087198;28;20039;-88
2023/07/23 01:32:21;;;;;;;0.17;0.17;;;14.60;99.90;;;;;;5091238;28;20044;-89
2023/07/23 01:34:48;;;;;;;0.10;0.10;;;14.50;99.90;;;;;;5094146;28;20090;-88
2023/07/23 01:37:15;;;;;;;0.10;0.10;;;14.70;99.90;;;;;;5086942;28;20041;-90
2023/07/23 01:39:42;;;;;;;0.10;0.10;;;14.70;99.90;;;;;;5084582;28;20587;-88
2023/07/23 01:42:10;;;;;;;0.10;0.10;;;14.70;99.90;;;;;;5072831;28;20438;-92
2023/07/23 01:44:36;;;;;;;0.20;0.20;;;14.70;99.90;;;;;;5088638;28;20403;-90
2023/07/23 01:47:01;;;;;;;0.20;0.20;;;14.70;99.90;;;;;;5092311;28;20036;-86
2023/07/23 01:49:27;;;;;;;0.15;0.15;;;14.70;99.90;;;;;;5088840;28;20141;-91
2023/07/23 01:51:52;;;;;;;0.20;0.20;;;14.70;99.90;;;;;;5117513;27;20484;-87
2023/07/23 01:54:19;;;;;;;0.20;0.20;;;14.70;99.90;;;;;;5084358;28;20040;-87
2023/07/23 01:56:46;;;;;;;0.20;0.20;;;14.70;99.90;;;;;;5088896;28;20055;-90
2023/07/23 01:59:11;;;;;;;0.20;0.20;;;14.60;99.90;;;;;;5091146;28;20054;-91
2023/07/23 02:01:37;;;;;;;0.10;0.10;;;14.70;99.90;;;;;;5079790;28;20035;-90
2023/07/23 02:04:03;;;;;;;0.10;0.10;;;14.60;99.90;;;;;;5090025;28;20044;-89
2023/07/23 02:06:28;;;;;;;0.10;0.10;;;14.60;99.90;;;;;;5091703;28;20398;-87
2023/07/23 02:08:54;;;;;;;0.20;0.20;;;14.80;99.90;;;;;;5092012;28;20062;-86
2023/07/23 02:11:20;;;;;;;0.20;0.20;;;14.70;99.90;;;;;;5081395;28;20036;-89
2023/07/23 02:13:45;;;;;;;0.10;0.10;;;14.70;99.90;;;;;;5086340;28;20044;-90
2023/07/23 02:16:18;;;;;;;0.10;0.10;;;14.70;99.90;;;;;;5089644;28;20506;-87
2023/07/23 02:18:43;;;;;;;0.20;0.20;;;14.80;99.90;;;;;;5090135;28;20040;-87
2023/07/23 02:21:09;;;;;;;0.20;0.20;;;14.70;99.90;;;;;;5095241;28;20105;-89
2023/07/23 02:23:35;;;;;;;0.10;0.10;;;14.70;99.90;;;;;;5095006;28;20036;-87
2023/07/23 02:26:00;;;;;;;0.10;0.10;;;14.80;99.90;;;;;;5091272;28;20105;-89
2023/07/23 02:28:26;;;;;;;0.10;0.10;;;14.80;99.90;;;;;;5100143;28;20043;-87
2023/07/23 02:30:59;;;;;;;0.20;0.20;;;14.70;99.90;;;;;;5104396;28;20032;-88
2023/07/23 02:33:25;;;;;;;0.20;0.20;;;14.70;99.90;;;;;;5089693;28;20040;-88
2023/07/23 02:35:51;;;;;;;0.10;0.10;;;14.60;99.90;;;;;;5093474;28;20079;-91
2023/07/23 02:38:17;;;;;;;0.10;0.10;;;14.70;99.90;;;;;;5122648;27;20518;-89
2023/07/23 02:40:43;;;;;;;0.20;0.20;;;14.80;99.90;;;;;;5093331;28;20042;-89
2023/07/23 02:43:12;;;;;;;0.20;0.20;;;14.70;99.90;;;;;;5096630;28;20135;-86
2023/07/23 02:45:39;;;;;;;0.20;0.20;;;14.80;99.90;;;;;;5082288;28;20659;-85
2023/07/23 02:48:05;;;;;;;0.20;0.20;;;14.80;99.90;;;;;;5077410;28;20098;-85
2023/07/23 02:50:31;;;;;;;0.10;0.10;;;14.80;99.90;;;;;;5076777;28;20187;-88
2023/07/23 02:52:57;;;;;;;0.20;0.20;;;14.70;99.90;;;;;;5077317;28;20490;-86
2023/07/23 02:55:24;;;;;;;0.20;0.20;;;14.80;99.90;;;;;;5091327;28;20201;-88
2023/07/23 02:57:51;;;;;;;0.20;0.20;;;14.80;99.90;;;;;;5116716;27;20119;-86
2023/07/23 03:00:20;;;;;;;0.10;0.10;;;14.70;99.90;;;;;;5091940;28;20048;-91
2023/07/23 03:02:49;;;;;;;0.20;0.20;;;14.70;99.90;;;;;;5093976;28;20079;-86
2023/07/23 03:05:15;;;;;;;0.20;0.20;;;14.80;99.90;;;;;;5095608;28;20075;-89
2023/07/23 03:07:41;;;;;;;0.20;0.20;;;14.70;99.90;;;;;;5119258;27;20040;-91
2023/07/23 03:10:07;;;;;;;0.20;0.20;;;14.70;99.90;;;;;;5098763;28;20575;-89
2023/07/23 03:12:33;;;;;;;0.10;0.10;;;14.70;99.90;;;;;;5094264;28;20040;-89
2023/07/23 03:14:59;;;;;;;0.15;0.15;;;14.70;99.90;;;;;;5096048;28;20101;-91
2023/07/23 03:17:25;;;;;;;0.20;0.20;;;14.70;99.90;;;;;;5091316;28;20055;-86
2023/07/23 03:19:51;;;;;;;0.10;0.10;;;14.80;99.90;;;;;;5072959;28;20518;-89
2023/07/23 03:22:17;;;;;;;0.20;0.20;;;14.70;99.90;;;;;;5081723;28;20082;-91
2023/07/23 03:24:43;;;;;;;0.17;0.17;;;14.70;99.90;;;;;;5094030;28;20517;-91
2023/07/23 03:27:09;;;;;;;0.10;0.10;;;14.80;99.90;;;;;;5080434;28;20120;-89
2023/07/23 03:29:35;;;;;;;0.20;0.20;;;14.70;99.90;;;;;;5073036;28;20128;-90
2023/07/23 03:32:00;;;;;;;0.20;0.20;;;14.80;99.90;;;;;;5088969;28;20436;-84
2023/07/23 03:34:26;;;;;;;0.20;0.20;;;14.70;99.90;;;;;;5110870;27;20527;-90
2023/07/23 03:36:52;;;;;;;0.20;0.20;;;14.70;99.90;;;;;;5081868;28;20040;-90
2023/07/23 03:39:18;;;;;;;0.10;0.10;;;14.80;99.90;;;;;;5091878;28;20059;-88
2023/07/23 03:41:47;;;;;;;0.20;0.20;;;14.70;99.90;;;;;;5098189;28;20032;-90
2023/07/23 03:44:13;;;;;;;0.10;0.10;;;14.70;99.90;;;;;;5101179;28;20487;-90
2023/07/23 03:46:44;;;;;;;0.20;0.20;;;14.70;99.90;;;;;;5091686;28;20523;-89
2023/07/23 03:49:11;;;;;;;0.20;0.20;;;14.70;99.90;;;;;;5092493;28;20131;-87
2023/07/23 03:51:37;;;;;;;0.20;0.20;;;14.80;99.90;;;;;;5091794;28;20048;-87
2023/07/23 03:54:03;;;;;;;0.20;0.20;;;14.70;99.90;;;;;;5095209;28;20051;-91
2023/07/23 03:56:28;;;;;;;0.10;0.10;;;14.80;99.90;;;;;;5094743;28;20055;-85
2023/07/23 03:58:54;;;;;;;0.10;0.10;;;14.70;99.90;;;;;;5104420;28;20406;-87
2023/07/23 04:01:19;;;;;;;0.20;0.20;;;14.80;99.90;;;;;;5091412;28;20474;-87
2023/07/23 04:03:45;;;;;;;0.20;0.20;;;14.70;99.90;;;;;;5081571;28;20525;-91
2023/07/23 04:06:11;;;;;;;0.10;0.10;;;14.80;99.90;;;;;;5091266;28;20047;-87
2023/07/23 04:08:37;;;;;;;0.20;0.20;;;14.70;99.90;;;;;;5089378;28;20473;-86
2023/07/23 04:11:02;;;;;;;0.20;0.20;;;14.70;99.90;;;;;;5090648;28;20090;-87
2023/07/23 04:13:28;;;;;;;0.15;0.15;;;14.80;99.90;;;;;;5095765;28;20051;-89
2023/07/23 04:15:54;;;;;;;0.20;0.20;;;14.70;99.90;;;;;;5090442;28;20083;-84
2023/07/23 04:18:19;;;;;;;0.10;0.10;;;14.70;99.90;;;;;;5089226;28;20047;-88
2023/07/23 04:20:45;;;;;;;0.20;0.20;;;14.80;99.90;;;;;;5091652;28;20097;-86
2023/07/23 04:23:11;;;;;;;0.20;0.20;;;14.80;99.90;;;;;;5091264;28;20052;-87
2023/07/23 04:25:36;;;;;;;0.10;0.10;;;14.80;99.90;;;;;;5126027;27;20040;-87
2023/07/23 04:28:03;;;;;;;0.10;0.10;;;14.80;99.90;;;;;;5092639;28;20100;-88
2023/07/23 04:30:30;;;;;;;0.20;0.20;;;14.80;99.90;;;;;;5077179;28;20471;-86
2023/07/23 04:32:56;;;;;;;0.17;0.17;;;14.80;99.90;;;;;;5092705;28;20127;-87
2023/07/23 04:35:22;;;;;;;0.20;0.20;;;14.80;99.90;;;;;;5090725;28;20075;-84
2023/07/23 04:37:47;;;;;;;0.20;0.20;;;14.80;99.90;;;;;;5083564;28;20036;-85
2023/07/23 04:40:13;;;;;;;0.10;0.10;;;14.90;99.90;;;;;;5091895;28;20055;-83
2023/07/23 04:42:38;;;;;;;0.10;0.10;;;14.80;99.90;;;;;;5111224;27;20074;-87
2023/07/23 04:45:05;;;;;;;0.10;0.10;;;14.80;99.90;;;;;;5089630;28;20085;-88
2023/07/23 04:47:30;;;;;;;0.20;0.20;;;14.80;99.90;;;;;;5110772;28;20176;-85
2023/07/23 04:49:57;;;;;;;0.10;0.10;;;14.80;99.90;;;;;;5109545;28;20562;-83
2023/07/23 04:52:23;;;;;;;0.20;0.20;;;14.90;99.90;;;;;;5082703;28;20040;-85
2023/07/23 04:54:50;;;;;;;0.20;0.20;;;14.80;99.90;;;;;;5080431;28;20187;-85
2023/07/23 04:57:16;;;;;;;0.20;0.20;;;14.80;99.90;;;;;;5089298;28;20044;-84
2023/07/23 04:59:41;;;;;;;0.20;0.20;;;14.80;99.90;;;;;;5088128;28;20410;-84
2023/07/23 05:02:07;;;;;;;0.20;0.20;;;14.80;99.90;;;;;;5089378;28;20059;-85
2023/07/23 05:04:34;;;;;;;0.20;0.20;;;14.90;99.90;;;;;;5079879;28;20044;-88
2023/07/23 05:06:59;;;;;;;0.20;0.20;;;14.90;99.90;;;;;;5086620;28;20032;-86
2023/07/23 05:09:25;;;;;;;0.20;0.20;;;14.80;99.90;;;;;;5090534;28;20428;-87
2023/07/23 05:11:51;;;;;;;0.17;0.17;;;14.80;99.90;;;;;;5088803;28;20051;-86
2023/07/23 05:14:17;;;;;;;0.20;0.20;;;14.80;99.90;;;;;;5091475;28;20144;-86
2023/07/23 05:16:42;;;;;;;0.20;0.20;;;14.90;99.90;;;;;;5108869;27;20048;-87
2023/07/23 05:19:08;;;;;;;0.10;0.10;;;14.90;99.90;;;;;;5084343;28;20059;-87
2023/07/23 05:21:36;;;;;;;0.10;0.10;;;14.90;99.90;;;;;;5082729;28;20491;-86
2023/07/23 05:24:02;;;;;;;0.20;0.20;;;14.90;99.90;;;;;;5089952;28;20048;-84
2023/07/23 05:26:28;;;;;;;0.20;0.20;;;14.90;99.90;;;;;;5098356;28;20119;-86
2023/07/23 05:28:54;;;;;;;0.65;0.65;;;14.80;99.90;;;;;;5107554;27;20131;-85
2023/07/23 05:31:19;;;;;;;0.20;0.20;;;14.90;99.90;;;;;;5081362;28;20067;-86
2023/07/23 05:33:45;;;;;;;0.20;0.20;;;14.80;99.90;;;;;;5072860;28;20047;-86
2023/07/23 05:36:10;;;;;;;0.17;0.17;;;15.00;99.90;;;;;;5088310;28;20051;-86
2023/07/23 05:38:36;;;;;;;0.10;0.10;;;14.90;99.90;;;;;;5077822;28;20085;-86
2023/07/23 05:41:02;;;;;;;0.20;0.20;;;15.00;99.90;;;;;;5084463;28;20399;-83
2023/07/23 05:43:29;;;;;;;0.15;0.15;;;14.90;99.90;;;;;;5089294;28;20455;-87
2023/07/23 05:45:55;;;;;;;0.15;0.15;;;15.00;99.90;;;;;;5090769;28;20250;-84
2023/07/23 05:48:21;;;;;;;0.20;0.20;;;15.00;99.90;;;;;;5089873;28;20040;-85
2023/07/23 05:50:47;;;;;;;0.20;0.20;;;14.90;99.90;;;;;;5090767;28;20032;-85
2023/07/23 05:53:12;;;;;;;0.20;0.20;;;15.00;99.90;;;;;;5090879;28;20112;-85
2023/07/23 05:55:38;;;;;;;0.20;0.20;;;14.90;99.90;;;;;;5089507;28;20066;-83
2023/07/23 05:58:04;;;;;;;0.20;0.20;;;15.00;99.90;;;;;;5089827;28;20048;-84
2023/07/23 06:00:30;;;;;;;0.10;0.10;;;15.00;99.90;;;;;;5090989;28;20462;-86
2023/07/23 06:02:55;;;;;;;0.10;0.10;;;15.00;99.90;;;;;;5089750;28;20101;-85
2023/07/23 06:05:21;;;;;;;0.20;0.20;;;15.00;99.90;;;;;;5090053;28;20036;-86
2023/07/23 06:07:47;;;;;;;0.10;0.10;;;15.10;99.90;;;;;;5090661;28;20040;-85
2023/07/23 06:10:12;;;;;;;0.10;0.10;;;15.10;99.90;;;;;;5090357;28;20064;-86
2023/07/23 06:12:38;;;;;;;0.20;0.20;;;15.10;99.90;;;;;;5106556;28;20043;-87
2023/07/23 06:15:04;;;;;;;0.17;0.17;;;15.10;99.90;;;;;;5092193;28;20054;-83
2023/07/23 06:17:30;;;;;;;0.25;0.22;;;15.20;99.90;;;;;;5093047;28;20150;-85
2023/07/23 06:19:55;;;;;;;0.20;0.20;;;15.10;99.90;;;;;;5088596;28;20136;-86
2023/07/23 06:22:21;;;;;;;0.20;0.20;;;15.20;99.90;;;;;;5087551;28;20047;-86
2023/07/23 06:24:47;;;;;;;0.20;0.20;;;15.10;99.90;;;;;;5083706;28;20052;-84
2023/07/23 06:27:12;;;;;;;0.20;0.20;;;15.20;99.90;;;;;;5094522;28;20111;-84
2023/07/23 06:29:38;;;;;;;0.20;0.20;;;15.20;99.90;;;;;;5087170;28;20043;-83
2023/07/23 06:32:04;;;;;;;0.10;0.10;;;15.30;99.90;;;;;;5089759;28;20585;-85
2023/07/23 06:34:30;;;;;;;0.10;0.10;;;15.20;99.90;;;;;;5100133;28;20041;-83
2023/07/23 06:36:56;;;;;;;0.17;0.17;;;15.20;99.90;;;;;;5079446;28;20543;-86
2023/07/23 06:39:21;;;;;;;0.20;0.20;;;15.30;99.90;;;;;;5084389;28;20435;-85
2023/07/23 06:41:47;;;;;;;0.20;0.20;;;15.30;99.90;;;;;;5114008;27;20368;-85
2023/07/23 06:44:13;;;;;;;0.17;0.17;;;15.30;99.90;;;;;;5128248;27;20040;-86
2023/07/23 06:46:38;;;;;;;0.10;0.10;;;15.30;99.90;;;;;;5091511;28;20048;-85
2023/07/23 06:49:04;;;;;;;0.20;0.20;;;15.40;99.90;;;;;;5093442;28;20054;-84
2023/07/23 06:51:30;;;;;;;0.20;0.20;;;15.40;99.90;;;;;;5093600;28;20048;-90
2023/07/23 06:53:55;;;;;;;0.20;0.20;;;15.30;99.90;;;;;;5092737;28;20050;-85
2023/07/23 06:56:21;;;;;;;0.20;0.20;;;15.70;99.90;;;;;;5090392;28;20131;-82
2023/07/23 06:58:47;;;;;;;0.13;0.13;;;15.30;99.90;;;;;;5094479;28;20122;-86
2023/07/23 07:01:13;;;;;;;0.10;0.10;;;15.30;99.90;;;;;;5123224;27;20044;-88
2023/07/23 07:03:39;;;;;;;0.20;0.20;;;15.50;99.90;;;;;;5080762;28;20093;-87
2023/07/23 07:06:05;;;;;;;0.20;0.20;;;15.50;99.90;;;;;;5089968;28;20044;-90
2023/07/23 07:08:31;;;;;;;0.20;0.20;;;15.50;99.90;;;;;;5095249;28;20071;-88
2023/07/23 07:11:01;;;;;;;0.20;0.20;;;15.50;99.90;;;;;;5092650;28;20482;-84
2023/07/23 07:13:31;;;;;;;0.20;0.20;;;15.60;99.90;;;;;;5090916;28;20083;-86
2023/07/23 07:15:57;;;;;;;1.27;0.50;;;15.60;99.90;;;;;;5089520;28;20048;-85
2023/07/23 07:18:24;;;;;;;0.20;0.20;;;15.60;99.90;;;;;;5091094;28;20114;-87
2023/07/23 07:20:58;;;;;;;0.20;0.20;;;15.60;99.90;;;;;;5073205;28;20053;-87
2023/07/23 07:23:28;;;;;;;0.10;0.10;;;15.60;99.90;;;;;;5082742;28;20396;-93
2023/07/23 07:25:55;;;;;;;0.20;0.20;;;15.60;99.90;;;;;;5082589;28;20089;-89
2023/07/23 07:28:21;;;;;;;0.20;0.20;;;15.60;99.90;;;;;;5088664;28;20048;-86
2023/07/23 07:30:47;;;;;;;0.10;0.10;;;15.70;99.90;;;;;;5092247;28;20056;-85
2023/07/23 07:33:13;;;;;;;0.20;0.20;;;15.70;99.90;;;;;;5090909;28;20035;-87
2023/07/23 07:35:38;;;;;;;0.20;0.20;;;15.70;99.90;;;;;;5088635;28;20483;-88
2023/07/23 07:38:04;;;;;;;0.20;0.20;;;15.70;99.90;;;;;;5094654;28;20044;-86
2023/07/23 07:40:30;;;;;;;0.10;0.10;;;15.70;99.90;;;;;;5120660;27;20116;-91
2023/07/23 07:42:56;;;;;;;0.10;0.10;;;15.80;99.90;;;;;;5111506;27;20071;-87
2023/07/23 07:45:22;;;;;;;0.20;0.20;;;15.70;99.90;;;;;;5092419;28;20114;-86
2023/07/23 07:47:47;;;;;;;0.20;0.20;;;15.70;99.90;;;;;;5086429;28;20133;-87
2023/07/23 07:50:13;;;;;;;0.20;0.20;;;15.80;99.90;;;;;;5094770;28;20047;-88
2023/07/23 07:52:39;;;;;;;0.20;0.20;;;15.80;99.90;;;;;;5090818;28;20048;-88
2023/07/23 07:55:05;;;;;;;0.10;0.10;;;15.80;99.90;;;;;;5118467;27;20048;-90
2023/07/23 07:57:32;;;;;;;0.20;0.20;;;15.90;99.90;;;;;;5084593;28;20036;-85
2023/07/23 08:00:07;;;;;;;0.10;0.10;;;15.80;99.90;;;;;;5089536;28;20047;-86
2023/07/23 08:02:33;;;;;;;0.10;0.10;;;15.80;99.90;;;;;;5075838;28;20074;-86
2023/07/23 08:04:59;;;;;;;0.20;0.20;;;15.90;99.90;;;;;;5105345;28;20132;-86
2023/07/23 08:07:25;;;;;;;0.20;0.20;;;15.90;99.90;;;;;;5088196;28;20123;-87
2023/07/23 08:09:52;;;;;;;0.20;0.20;;;15.90;99.90;;;;;;5071016;28;20068;-86
2023/07/23 08:12:19;;;;;;;0.20;0.20;;;15.90;99.90;;;;;;5073084;28;20055;-86
2023/07/23 08:14:46;;;;;;;0.20;0.20;;;16.00;99.90;;;;;;5072434;28;20491;-86
2023/07/23 08:17:12;;;;;;;0.30;0.30;;;16.00;99.90;;;;;;5106767;27;20091;-88
2023/07/23 08:19:38;;;;;;;0.20;0.20;;;15.90;99.90;;;;;;5072711;28;20045;-85
2023/07/23 08:22:04;;;;;;;0.10;0.10;;;16.00;99.90;;;;;;5118363;27;20055;-86
2023/07/23 08:24:30;;;;;;;0.20;0.20;;;16.00;99.90;;;;;;5072750;28;20392;-86
2023/07/23 08:26:59;;;;;;;0.20;0.20;;;16.10;99.90;;;;;;5070451;28;20101;-87
2023/07/23 08:29:28;;;;;;;0.13;0.13;;;16.00;99.90;;;;;;5084012;28;20928;-85
2023/07/23 08:31:55;;;;;;;0.10;0.10;;;16.10;99.90;;;;;;5123209;27;20072;-90
2023/07/23 08:34:22;;;;;;;0.10;0.10;;;16.00;99.90;;;;;;5085192;28;20082;-89
2023/07/23 08:36:49;;;;;;;0.10;0.10;;;16.10;99.90;;;;;;5087286;28;20040;-85
2023/07/23 08:39:15;;;;;;;0.20;0.20;;;16.00;99.90;;;;;;5077685;28;20040;-83
2023/07/23 08:42:24;;;;;;;0.20;0.20;;;16.10;99.90;;;;;;5080186;28;20043;-91
2023/07/23 08:44:59;;;;;;;0.20;0.20;;;16.10;99.90;;;;;;5079181;28;20046;-86
2023/07/23 08:47:26;;;;;;;0.17;0.17;;;16.00;99.90;;;;;;5083021;28;20540;-77
2023/07/23 08:49:53;;;;;;;0.10;0.10;;;16.10;99.90;;;;;;5072033;28;20523;-77
2023/07/23 08:52:21;;;;;;;0.20;0.20;;;16.10;99.90;;;;;;5076723;28;20076;-77
2023/07/23 08:54:47;;;;;;;0.20;0.20;;;16.00;99.90;;;;;;5075447;28;20170;-78
2023/07/23 08:57:13;;;;;;;0.10;0.10;;;16.00;99.90;;;;;;5074578;28;20046;-77
2023/07/23 08:59:40;;;;;;;0.20;0.20;;;16.10;99.90;;;;;;5079818;28;20487;-77
2023/07/23 09:02:10;;;;;;;0.10;0.10;;;16.10;99.90;;;;;;5086485;28;20040;-78
2023/07/23 09:04:35;;;;;;;0.20;0.20;;;15.90;99.90;;;;;;5068326;28;20044;-76
2023/07/23 09:07:03;;;;;;;0.15;0.15;;;16.00;99.90;;;;;;5085001;28;20392;-76
2023/07/23 09:09:28;;;;;;;0.20;0.20;;;16.00;99.90;;;;;;5078124;28;20106;-78
2023/07/23 09:11:54;;;;;;;0.20;0.20;;;16.10;99.90;;;;;;5075233;28;20578;-78
2023/07/23 09:14:20;;;;;;;0.10;0.10;;;16.10;99.90;;;;;;5110131;27;20052;-79
2023/07/23 09:16:48;;;;;;;0.10;0.10;;;16.10;99.90;;;;;;5078467;28;20052;-79
2023/07/23 09:19:24;;;;;;;0.10;0.10;;;16.10;99.90;;;;;;5078096;28;20044;-77
2023/07/23 09:21:56;;;;;;;0.20;0.20;;;16.20;99.90;;;;;;5081782;28;20036;-75
2023/07/23 09:24:21;;;;;;;0.10;0.10;;;16.20;99.90;;;;;;5109140;27;20058;-77
2023/07/23 09:26:47;;;;;;;0.10;0.10;;;16.30;99.90;;;;;;5084480;28;20040;-77
2023/07/23 09:29:13;;;;;;;0.10;0.10;;;16.20;99.90;;;;;;5078196;28;20375;-76
2023/07/23 09:31:44;;;;;;;0.20;0.20;;;16.20;99.90;;;;;;5078231;28;20056;-77
2023/07/23 09:34:10;;;;;;;0.20;0.20;;;16.20;99.90;;;;;;5076204;28;20051;-79
2023/07/23 09:36:36;;;;;;;0.10;0.10;;;16.20;99.90;;;;;;5081376;28;20441;-76
2023/07/23 09:39:08;;;;;;;0.20;0.20;;;16.20;99.90;;;;;;5082639;28;20047;-79
2023/07/23 09:41:36;;;;;;;0.20;0.20;;;16.20;99.90;;;;;;5110081;27;20047;-77
2023/07/23 09:44:06;;;;;;;0.20;0.20;;;16.30;99.90;;;;;;5078894;28;20372;-77
2023/07/23 09:46:32;;;;;;;0.20;0.20;;;16.30;99.90;;;;;;5079002;28;20147;-77
2023/07/23 09:48:58;;;;;;;0.20;0.20;;;16.20;99.90;;;;;;5075322;28;20624;-76
2023/07/23 09:51:24;;;;;;;0.20;0.20;;;16.20;99.90;;;;;;5079712;28;20131;-75
2023/07/23 09:53:50;;;;;;;0.20;0.20;;;16.50;99.90;;;;;;5100714;28;20173;-79
2023/07/23 09:56:17;;;;;;;0.20;0.20;;;16.20;99.90;;;;;;5078753;28;20176;-79
2023/07/23 09:58:47;;;;;;;0.20;0.20;;;16.30;99.90;;;;;;5097560;28;20051;-79
2023/07/23 10:01:16;;;;;;;0.20;0.20;;;16.20;99.90;;;;;;5084680;28;20455;-78
2023/07/23 10:03:47;;;;;;;0.20;0.20;;;16.30;99.90;;;;;;5076874;28;20056;-79
2023/07/23 10:06:20;;;;;;;0.20;0.20;;;16.40;99.90;;;;;;5085718;28;20727;-77
2023/07/23 10:08:48;;;;;;;0.20;0.20;;;16.30;99.90;;;;;;5079837;28;20052;-78
2023/07/23 10:11:15;;;;;;;0.15;0.15;;;16.30;99.90;;;;;;5079337;28;20073;-77
2023/07/23 10:13:42;;;;;;;0.10;0.10;;;16.40;99.90;;;;;;5081493;28;20052;-77
2023/07/23 10:16:16;;;;;;;0.20;0.20;;;16.40;99.90;;;;;;5105707;28;20480;-78
2023/07/23 10:18:44;;;;;;;0.20;0.20;;;16.40;99.90;;;;;;5077430;28;20079;-79
2023/07/23 10:21:10;;;;;;;0.20;0.20;;;16.30;99.90;;;;;;5074321;28;20043;-78
2023/07/23 10:23:39;;;;;;;0.20;0.20;;;16.30;99.90;;;;;;5072285;28;20044;-80
2023/07/23 10:26:28;;;;;;;0.20;0.20;;;16.30;99.90;;;;;;5076652;28;20044;-81
2023/07/23 10:29:12;;;;;;;0.20;0.20;;;16.40;99.90;;;;;;5079618;28;20044;-81
2023/07/23 10:31:39;;;;;;;0.20;0.20;;;16.40;99.90;;;;;;5080837;28;20048;-82
2023/07/23 10:34:26;;;;;;;0.20;0.20;;;16.40;99.90;;;;;;5078105;28;20044;-81
2023/07/23 10:37:10;;;;;;;0.20;0.20;;;16.40;99.90;;;;;;5073438;28;20525;-80
2023/07/23 10:39:40;;;;;;;0.20;0.20;;;16.40;99.90;;;;;;5077688;28;20898;-78
2023/07/23 10:42:05;;;;;;;0.20;0.20;;;16.40;99.90;;;;;;5077617;28;20056;-78
2023/07/23 10:44:31;;;;;;;0.20;0.20;;;16.40;99.90;;;;;;5105670;27;20066;-81
2023/07/23 10:46:58;;;;;;;0.20;0.20;;;16.40;99.90;;;;;;5079276;28;20140;-85
2023/07/23 10:49:27;;;;;;;0.20;0.20;;;16.50;99.90;;;;;;5085802;28;20048;-86
2023/07/23 10:51:53;;;;;;;0.20;0.20;;;16.40;99.90;;;;;;5080255;28;20249;-86
2023/07/23 10:54:20;;;;;;;0.20;0.20;;;16.50;99.90;;;;;;5084749;28;20072;-83
2023/07/23 10:56:48;;;;;;;0.17;0.17;;;16.50;99.90;;;;;;5087067;28;20119;-85
2023/07/23 10:59:15;;;;;;;0.20;0.20;;;16.50;99.90;;;;;;5073641;28;20067;-84
2023/07/23 11:01:43;;;;;;;0.20;0.20;;;16.50;99.90;;;;;;5081264;28;20080;-84
2023/07/23 11:04:11;;;;;;;0.20;0.20;;;16.50;99.90;;;;;;5087216;28;20044;-85
2023/07/23 11:06:40;;;;;;;0.17;0.17;;;16.60;99.90;;;;;;5098856;28;20318;-86
2023/07/23 11:09:10;;;;;;;0.20;0.20;;;16.60;99.90;;;;;;5083427;28;20056;-85
2023/07/23 11:11:41;;;;;;;0.20;0.20;;;16.70;99.90;;;;;;5084257;28;20040;-88
2023/07/23 11:14:21;;;;;;;0.10;0.10;;;16.70;99.90;;;;;;5090689;28;20052;-88
2023/07/23 11:16:52;;;;;;;0.20;0.20;;;16.70;99.90;;;;;;5083535;28;20393;-87
2023/07/23 11:19:19;;;;;;;0.20;0.20;;;16.70;99.90;;;;;;5127422;27;20109;-89
2023/07/23 11:21:50;;;;;;;0.20;0.20;;;16.70;99.90;;;;;;5093573;28;20105;-87
2023/07/23 11:24:16;;;;;;;;;;;16.80;99.90;;;;;;5127683;27;20048;-87
2023/07/23 11:26:42;;;;;;;0.10;0.10;;;16.80;99.90;;;;;;5091188;28;19926;-87
2023/07/23 11:29:09;;;;;;;0.20;0.20;;;16.90;99.90;;;;;;5094872;28;20126;-85
2023/07/23 11:31:35;;;;;;;0.10;0.10;;;16.90;99.90;;;;;;5126509;27;20437;-88
2023/07/23 11:34:01;;;;;;;0.20;0.20;;;16.90;99.90;;;;;;5093267;28;20044;-88
2023/07/23 11:36:28;;;;;;;0.20;0.20;;;16.90;99.90;;;;;;5086485;28;20446;-86
2023/07/23 11:38:55;;;;;;;0.20;0.20;;;17.00;99.90;;;;;;5086597;28;20040;-86
2023/07/23 11:41:30;;;;;;;0.10;0.10;;;17.00;99.90;;;;;;5110823;27;20087;-86
2023/07/23 11:43:57;;;;;;;0.20;0.20;;;17.10;99.90;;;;;;5084270;28;20040;-87
2023/07/23 11:46:23;;;;;;;0.20;0.20;;;17.00;99.90;;;;;;5093469;28;20032;-87
2023/07/23 11:48:53;;;;;;;0.17;0.17;;;17.10;99.90;;;;;;5089655;28;20044;-87
2023/07/23 11:51:19;;;;;;;0.20;0.20;;;17.00;99.90;;;;;;5090020;28;20083;-86
2023/07/23 11:53:44;;;;;;;0.10;0.10;;;17.10;99.90;;;;;;5075962;28;20087;-87
2023/07/23 11:56:14;;;;;;;0.10;0.10;;;17.10;99.90;;;;;;5106922;28;20075;-87
2023/07/23 11:58:40;;;;;;;0.10;0.10;;;17.10;99.90;;;;;;5089286;28;20063;-87
2023/07/23 12:01:08;;;;;;;0.20;0.20;;;17.10;99.90;;;;;;5094074;28;20503;-87
2023/07/23 12:03:40;;;;;;;0.10;0.10;;;17.10;99.90;;;;;;5091732;28;20479;-89
2023/07/23 12:06:06;;;;;;;0.20;0.20;;;17.10;99.90;;;;;;5077253;28;20130;-87
2023/07/23 12:08:32;;;;;;;0.20;0.20;;;17.10;99.90;;;;;;5107324;27;20079;-87
2023/07/23 12:10:58;;;;;;;0.20;0.20;;;17.10;99.90;;;;;;5092313;28;20521;-86
2023/07/23 12:13:27;;;;;;;0.20;0.20;;;17.00;99.90;;;;;;5108827;28;20104;-83
2023/07/23 12:15:57;;;;;;;0.20;0.20;;;17.00;99.90;;;;;;5087217;28;20032;-86
2023/07/23 12:18:25;;;;;;;0.20;0.20;;;17.10;99.90;;;;;;5092284;28;20040;-86
2023/07/23 12:20:58;;;;;;;0.20;0.20;;;17.00;99.90;;;;;;5087126;28;20040;-83
2023/07/23 12:23:27;;;;;;;0.20;0.20;;;17.10;99.90;;;;;;5092390;28;20048;-88
2023/07/23 12:25:53;;;;;;;0.20;0.20;;;17.10;99.90;;;;;;5084709;28;20047;-88
2023/07/23 12:28:18;;;;;;;0.20;0.20;;;17.00;99.90;;;;;;5086028;28;20036;-85
2023/07/23 12:30:44;;;;;;;0.10;0.10;;;17.10;99.90;;;;;;5090845;28;20040;-86
2023/07/23 12:33:10;;;;;;;0.20;0.20;;;17.10;99.90;;;;;;5088886;28;20047;-84
2023/07/23 12:35:36;;;;;;;0.20;0.20;;;17.20;99.90;;;;;;5087923;28;21245;-83
2023/07/23 12:38:01;;;;;;;0.20;0.20;;;17.20;99.90;;;;;;5085438;28;20857;-83
2023/07/23 12:40:27;;;;;;;0.10;0.10;;;17.20;99.90;;;;;;5091320;28;20036;-85
2023/07/23 12:42:53;;;;;;;0.10;0.10;;;17.30;99.90;;;;;;5087809;28;20047;-85
2023/07/23 12:45:19;;;;;;;0.20;0.20;;;17.30;99.90;;;;;;5089822;28;20193;-85
2023/07/23 12:47:44;;;;;;;0.20;0.20;;;17.40;99.90;;;;;;5087390;28;20554;-84